Aviation Digital Data Service (ADDS)

Output produced by METARs form (0029 UTC 28 March 2015)
found at http://www.aviationweather.gov/adds/metars/
 
KMDT 272356Z 32009KT 10SM BKN060 06/M05 A2979 RMK AO2 SLP092 T00611050 10089 20061 53014
KMDT 272256Z 34008KT 10SM BKN055 07/M04 A2978 RMK AO2 SLP087 T00721044
KMDT 272156Z 36011KT 10SM BKN055 08/M06 A2976 RMK AO2 SLP080 T00781056
KMDT 272056Z 36006KT 10SM BKN055 BKN220 08/M05 A2975 RMK AO2 SLP077 T00781050 56010
KMDT 271956Z COR VRB/06 10SM BKN050 BKN160 BKN220 08/M05 A2976
KMDT 271856Z 31014G18KT 10SM BKN050 BKN220 08/M04 A2975 RMK AO2 SLP076 T00831039
KMDT 271756Z 32009KT 10SM BKN050 08/M04 A2978 RMK AO2 SLP088 T00781039 10078 20050 56007
KMDT 271656Z 31011KT 10SM BKN048 07/M03 A2980 RMK AO2 SLP093 T00671033
KMDT 271556Z 03008KT 10SM OVC047 06/M03 A2979 RMK AO2 PRESFR SLP088 T00561033
KMDT 271456Z 34007KT 10SM SCT036 BKN046 OVC120 06/M01 A2981 RMK AO2 SLP095 T00611011 53000
KMDT 271356Z 33008KT 10SM FEW028 SCT048 BKN120 06/01 A2980 RMK AO2 SLP092 T00560011
KMDT 271332Z 35008KT 10SM SCT004 BKN110 OVC200 06/01 A2980 RMK AO2 T00560006
KMDT 271256Z 32006KT 10SM FEW043 FEW095 BKN110 05/01 A2980 RMK AO2 SLP092 T00500011
KMDT 271156Z 34004KT 10SM OVC039 05/02 A2980 RMK AO2 SLP095 60004 70053 T00500022 10072 20050 53002
KMDT 271116Z 34007KT 10SM SCT028 BKN038 OVC100 05/02 A2978 RMK AO2 T00500022 $
KMDT 271056Z 34007KT 10SM BKN028 BKN034 OVC095 05/03 A2978 RMK AO2 SLP087 T00500028 $
KMDT 270956Z 35004KT 10SM BKN100 OVC120 05/02 A2980 RMK AO2 RAE02 SLP092 P0000 T00500022 $
KMDT 270917Z 32006KT 10SM FEW049 OVC085 05/02 A2980 RMK AO2 RAE02 P0000 T00500022 $
KMDT 270856Z 31011KT 10SM -RA BKN026 OVC039 06/02 A2980 RMK AO2 SLP092 P0003 60004 T00560022 53010 $
KMDT 270756Z 33008KT 6SM -RA BKN028 OVC038 06/03 A2978 RMK AO2 SLP084 P0000 T00610033 $
KMDT 270656Z 32006KT 10SM -RA SCT025 BKN030 OVC048 07/03 A2979 RMK AO2 SLP087 P0001 T00670033 $
KMDT 270556Z 33009KT 10SM -RA SCT028 BKN070 OVC100 07/03 A2977 RMK AO2 RAB24 SLP081 P0000 60001 T00720033 10122 20072 53003 $
KMDT 270553Z 33009KT 10SM -RA SCT028 BKN070 OVC100 07/03 A2976 RMK AO2 RAB24 P0000 $
KMDT 270530Z 34006KT 10SM -RA BKN028 BKN080 OVC100 08/04 A2976 RMK AO2 RAB24 P0000 T00780039 $
KMDT 270456Z 34009KT 10SM FEW070 OVC090 08/03 A2976 RMK AO2 SLP081 T00780033 402000000 $
KMDT 270356Z 32010KT 10SM FEW045 BKN100 OVC140 08/03 A2976 RMK AO2 RAE17 SLP080 P0000 T00780033 $
KMDT 270256Z 33011KT 10SM -RA SCT043 BKN110 08/04 A2975 RMK AO2 RAE27B51 SLP075 P0000 60001 T00780039 51026 $
KMDT 270224Z 33010KT 10SM -RA BKN025 BKN100 08/04 A2975 RMK AO2 P0000 T00780039 $
KMDT 270156Z 33012KT 10SM -RA SCT025 OVC085 08/04 A2974 RMK AO2 RAB22 SLP072 P0000 T00830044 $
KMDT 270141Z 34014G20KT 10SM -RA SCT025 OVC085 08/04 A2974 RMK AO2 RAB22 P0000 T00830044 $
KMDT 270056Z 33014KT 10SM BKN016 OVC060 10/07 A2971 RMK AO2 RAE12 SLP061 P0001 T01000067 $
KMDT 270039Z 32015KT 10SM BKN020 BKN060 OVC090 11/07 A2970 RMK AO2 RAE12 PRESRR P0001 T01060067 $
KMDT 262356Z 32015KT 9SM -RA BKN030 BKN060 OVC090 12/08 A2967 RMK AO2 RAB44 TSE25 SLP049 TS MOVD SE OCNL LTG DSNT SE P0002 60048 T01220078 10200 20122 53035 $
KMDT 262326Z 34012KT 9SM SCT035 BKN060 OVC090 13/10 A2965 RMK AO2 TSE25 TS MOVD SE OCNL LTG DSNT SE T01330100 $
KMDT 262256Z 31012KT 7SM TS SCT020 BKN040CB OVC085 13/11 A2963 RMK AO2 SLP035 WSHFT 2206 FROPA PK WND 3135/2207 OCNL LTGICCG E-S TS E-S MOV E VIS LWR E-S P0046 T01330106 $
KMDT 262236Z 30012KT 5SM -TSRA BR SCT020 BKN035CB OVC075 12/11 A2961 RMK AO2 PK WND 31035/2207 WSHFT 2206 FRQ LTGICCG OHD-E-SW TS OHD-E-SW MOV E VIS E-S 2 P0045 T01220106
KMDT 262227Z 32013G22KT 1SM R13/3000VP6000FT +TSRA BR SCT012 BKN025CB OVC060 13/12 A2960 RMK AO2 PK WND 31035/2207 WSHFT 2206 FRQ LTGICCG OHD-ALQDS TS OHD-ALQDS MOV E P0039 T01330117
KMDT 262220Z 31018G25KT 3/4SM R13/2800VP6000FT +TSRA BR SCT015 BKN030CB OVC060 13/12 A2959 RMK AO2 PK WND 31035/2207 WSHFT 2206 FRQ LTGICCCCG OHD-ALQDS TS OHD-ALQDS MOV E P0014 T01280117
KMDT 262215Z 30016G35KT 1 1/2SM R13/4000VP6000FT +TSRA SQ BKN030CB BKN075 OVC120 14/13 A2960 RMK AO2 PK WND 31035/2207 RAB10 PRESRR FRQ LTGICCCCG SW-OHD-NE TS SW-OHD-NE MOV E P0002 T01440128
KMDT 262210Z 33026G35KT 7SM TSRA SQ BKN030CB BKN080 BKN120 BKN250 17/12 A2957 RMK AO2 PK WND 31035/2207 RAB10 PRESRR OCNL LTGICCCCG SW-NE TS SW-NE MOV E P0000 T01670122
KMDT 262156Z 18009KT 8SM TS BKN030CB BKN070 BKN120 BKN250 19/12 A2953 RMK AO2 TSB56 SLP000 OCNL LTGICCCCG VC W-N TS VC W-N MOV E T01890122
KMDT 262056Z 17009KT 10SM FEW030 BKN070 BKN250 19/12 A2957 RMK AO2 SLP014 T01890122 56043
KMDT 261956Z 15012G18KT 10SM SCT030 BKN250 19/12 A2959 RMK AO2 SLP019 T01940122
KMDT 261856Z 11007KT 9SM SCT025 BKN220 19/11 A2963 RMK AO2 PRESFR SLP033 T01940111 $
KMDT 261756Z 10006KT 5SM HZ OVC021 16/08 A2969 RMK AO2 PRESFR SLP057 T01560083 10156 20022 56058 $
KMDT 261656Z 17003KT 6SM HZ BKN017 OVC120 11/06 A2975 RMK AO2 SLP076 T01110056
KMDT 261641Z 17004KT 5SM HZ BKN017 OVC075 09/04 A2976 RMK AO2 T00940044
KMDT 261556Z 18003KT 5SM HZ FEW100 BKN250 09/04 A2980 RMK AO2 PRESFR SLP091 T00940039
KMDT 261544Z 18003KT 5SM HZ SCT020 SCT100 08/03 A2981 RMK AO2 PRESFR T00780033
KMDT 261456Z 16004KT 4SM HZ OVC016 06/02 A2987 RMK AO2 SLP117 T00610022 56026
KMDT 261356Z 00000KT 3SM HZ OVC016 05/02 A2989 RMK AO2 TWR VIS 6 SLP123 T00500017
KMDT 261303Z 00000KT 3SM BR OVC018 04/02 A2992 RMK AO2 TWR VIS 6 T00390017 $
KMDT 261256Z 00000KT 4SM BR FEW120 BKN250 03/01 A2992 RMK AO2 SLP134 T00330011 $